Time;durP1;ratioP1;P1;durP2;ratioP2;P2;SDS_P1;SDS_P2;PMS_P1;PMS_P2;Temp;Humidity;BMP_temperature;BMP_pressure;BME280_temperature;BME280_humidity;BME280_pressure;Samples;Min_cycle;Max_cycle;Signal;HPM_P1;HPM_P2
2022/09/25 00:01:29;;;;;;;8.25;7.00;;;;;;;9.90;58.43;99774.06;5050408;28;20025;-79
2022/09/25 00:03:55;;;;;;;16.95;8.15;;;;;;;10.04;58.74;99778.69;5051755;28;20045;-79
2022/09/25 00:06:23;;;;;;;19.58;7.97;;;;;;;10.06;57.79;99782.00;5050588;28;20078;-79
2022/09/25 00:08:49;;;;;;;10.35;7.07;;;;;;;9.78;58.74;99773.84;5051802;28;20461;-79
2022/09/25 00:11:27;;;;;;;11.10;7.82;;;;;;;9.57;60.02;99776.34;5050588;28;20151;-79
2022/09/25 00:13:53;;;;;;;10.50;7.35;;;;;;;9.25;61.66;99773.56;5050972;28;20096;-78
2022/09/25 00:16:25;;;;;;;14.75;9.77;;;;;;;8.89;62.46;99774.44;5036072;28;20037;-79
2022/09/25 00:21:35;;;;;;;15.57;10.43;;;;;;;9.21;61.94;99769.75;5034687;28;20430;-79
2022/09/25 00:24:04;;;;;;;17.77;10.13;;;;;;;9.36;61.34;99771.34;5046532;28;20029;-79
2022/09/25 00:26:33;;;;;;;15.98;9.95;;;;;;;9.25;61.33;99777.19;5031584;28;20033;-79
2022/09/25 00:29:01;;;;;;;12.88;9.52;;;;;;;9.07;62.01;99770.66;5031256;28;20036;-78
2022/09/25 00:31:28;;;;;;;10.43;8.10;;;;;;;8.87;62.50;99776.75;5030079;28;20415;-79
2022/09/25 00:33:57;;;;;;;9.15;8.05;;;;;;;8.90;62.74;99776.94;5034784;28;20025;-79
2022/09/25 00:36:23;;;;;;;11.68;7.53;;;;;;;9.03;62.46;99772.41;5041108;28;20118;-79
2022/09/25 00:38:49;;;;;;;9.02;7.10;;;;;;;9.17;61.76;99772.38;5055626;28;20033;-79
2022/09/25 00:41:17;;;;;;;11.73;6.85;;;;;;;9.04;62.24;99768.47;5055564;28;20025;-79
2022/09/25 00:43:52;;;;;;;13.90;7.30;;;;;;;8.88;62.85;99772.81;5055144;28;20063;-79
2022/09/25 00:46:23;;;;;;;17.60;8.27;;;;;;;9.17;61.69;99768.72;5054179;28;20044;-79
2022/09/25 00:48:54;;;;;;;11.63;7.47;;;;;;;9.12;62.42;99762.16;5055214;28;20430;-79
2022/09/25 00:51:28;;;;;;;11.25;7.75;;;;;;;9.55;61.35;99774.72;5053460;28;20031;-79
2022/09/25 00:53:57;;;;;;;13.60;7.80;;;;;;;9.57;61.30;99760.44;5054036;28;20032;-78
2022/09/25 00:56:23;;;;;;;11.63;7.82;;;;;;;9.48;61.14;99762.34;5055080;28;20043;-78
2022/09/25 00:58:49;;;;;;;10.70;8.30;;;;;;;9.40;61.63;99755.59;5053951;28;20024;-79
2022/09/25 01:01:15;;;;;;;13.55;8.25;;;;;;;9.53;61.07;99759.41;5055033;28;20524;-78
2022/09/25 01:03:41;;;;;;;9.73;7.60;;;;;;;9.49;60.75;99752.84;5055265;28;20131;-78
2022/09/25 01:06:09;;;;;;;16.70;8.00;;;;;;;9.67;60.17;99757.38;5046673;28;20472;-79
2022/09/25 01:08:36;;;;;;;15.40;8.60;;;;;;;9.50;61.01;99755.31;5033768;28;20481;-79
2022/09/25 01:11:01;;;;;;;11.85;7.68;;;;;;;9.00;62.37;99761.91;5034582;28;20480;-78
2022/09/25 01:13:28;;;;;;;14.55;8.23;;;;;;;8.90;62.96;99751.81;5033789;28;20112;-79
2022/09/25 01:16:20;;;;;;;16.20;8.50;;;;;;;9.38;61.99;99736.34;5034703;28;20440;-78
2022/09/25 01:19:07;;;;;;;12.90;8.40;;;;;;;9.21;62.35;99747.44;5040054;28;20041;-79
2022/09/25 01:21:48;;;;;;;17.63;9.02;;;;;;;9.12;62.48;99742.63;5034473;28;20049;-79
2022/09/25 01:24:54;;;;;;;13.93;9.52;;;;;;;8.89;62.95;99750.19;5048416;28;20028;-79
2022/09/25 01:27:41;;;;;;;15.00;8.90;;;;;;;9.22;61.92;99758.25;5053245;28;20123;-79
2022/09/25 01:30:10;;;;;;;15.63;8.90;;;;;;;9.45;61.16;99751.84;5039813;28;20029;-78
2022/09/25 01:32:54;;;;;;;12.55;8.52;;;;;;;9.48;60.63;99756.78;5034799;28;20531;-78
2022/09/25 01:35:44;;;;;;;13.48;9.05;;;;;;;9.57;60.40;99749.28;5032931;28;20429;-79
2022/09/25 01:38:14;;;;;;;11.83;8.00;;;;;;;9.13;61.32;99746.25;5034326;28;20370;-77
2022/09/25 01:40:54;;;;;;;23.15;10.80;;;;;;;8.81;62.72;99751.78;5032974;28;20523;-77
2022/09/25 01:43:30;;;;;;;;;;;;;;;9.07;62.37;99748.34;5033452;28;20032;-78
2022/09/25 01:46:00;;;;;;;14.52;9.45;;;;;;;9.02;62.18;99751.25;5033683;28;19924;-77
2022/09/25 01:48:27;;;;;;;13.48;8.93;;;;;;;8.83;63.33;99757.84;5034127;28;20482;-77
2022/09/25 01:50:59;;;;;;;13.90;8.73;;;;;;;8.64;64.23;99746.03;5043759;28;20036;-77
2022/09/25 01:53:31;;;;;;;15.77;9.60;;;;;;;8.22;65.33;99746.94;5034036;28;20412;-78
2022/09/25 01:56:02;;;;;;;15.25;10.15;;;;;;;8.27;65.05;99743.22;5034189;28;20032;-77
2022/09/25 01:58:43;;;;;;;16.40;11.48;;;;;;;8.61;64.34;99747.47;5032647;28;20078;-77
2022/09/25 02:01:15;;;;;;;14.07;9.32;;;;;;;8.52;64.42;99754.97;5033422;28;20017;-77
2022/09/25 02:03:47;;;;;;;28.65;11.15;;;;;;;8.39;64.80;99762.19;5040438;28;20116;-77
2022/09/25 02:06:18;;;;;;;14.00;9.70;;;;;;;8.40;65.32;99763.84;5036226;28;20018;-77
2022/09/25 02:09:12;;;;;;;20.52;10.52;;;;;;;8.23;65.60;99765.31;5033954;28;20032;-78
2022/09/25 02:11:46;;;;;;;15.13;10.18;;;;;;;8.21;65.55;99777.91;5033829;28;20091;-77
2022/09/25 02:14:29;;;;;;;17.00;10.20;;;;;;;7.98;65.92;99766.69;5035659;28;20078;-77
2022/09/25 02:16:57;;;;;;;15.15;9.95;;;;;;;7.96;66.07;99764.22;5047751;28;20036;-77
2022/09/25 02:22:35;;;;;;;15.88;10.60;;;;;;;7.79;66.51;99769.56;5033360;28;20086;-77
2022/09/25 02:25:11;;;;;;;17.42;11.20;;;;;;;7.66;66.79;99763.69;5040054;28;20037;-77
2022/09/25 02:27:36;;;;;;;16.48;10.88;;;;;;;7.92;66.26;99765.16;5053512;28;20071;-77
2022/09/25 02:30:02;;;;;;;15.15;9.93;;;;;;;8.25;65.35;99756.63;5053417;28;20051;-77
2022/09/25 02:32:30;;;;;;;12.88;9.90;;;;;;;8.10;65.64;99763.38;5051044;28;20053;-77
2022/09/25 02:34:58;;;;;;;16.98;10.75;;;;;;;8.15;65.52;99764.09;5053396;28;20021;-77
2022/09/25 02:37:25;;;;;;;15.45;10.98;;;;;;;7.84;66.36;99764.72;5052426;28;20021;-77
2022/09/25 02:39:55;;;;;;;17.02;10.65;;;;;;;7.71;67.00;99760.78;5052623;28;20029;-77
2022/09/25 02:42:35;;;;;;;14.57;10.98;;;;;;;7.66;67.93;99768.41;5049421;28;20025;-77
2022/09/25 02:45:00;;;;;;;18.23;11.43;;;;;;;7.60;68.34;99770.47;5033147;28;20128;-77
2022/09/25 02:47:53;;;;;;;14.40;11.20;;;;;;;7.47;69.02;99771.28;5034462;28;20112;-77
2022/09/25 02:51:03;;;;;;;16.73;11.35;;;;;;;7.69;69.12;99771.41;5032939;28;20139;-77
2022/09/25 02:53:45;;;;;;;16.77;10.73;;;;;;;7.77;68.49;99774.63;5032088;28;20061;-76
2022/09/25 02:56:19;;;;;;;18.58;10.60;;;;;;;7.72;68.69;99768.03;5032861;28;20025;-77
2022/09/25 02:58:53;;;;;;;12.50;9.52;;;;;;;7.65;68.45;99772.34;5033780;28;20025;-76
2022/09/25 03:01:23;;;;;;;12.05;8.95;;;;;;;7.59;68.46;99780.81;5045924;28;20021;-78
2022/09/25 03:03:50;;;;;;;;;;;;;;;7.66;68.01;99783.19;5033672;28;20029;-77
2022/09/25 03:06:16;;;;;;;10.68;8.48;;;;;;;7.52;68.18;99776.78;5033223;28;19916;-78
2022/09/25 03:08:48;;;;;;;13.85;9.02;;;;;;;7.55;68.82;99781.72;5033051;28;20468;-77
2022/09/25 03:11:20;;;;;;;19.88;9.60;;;;;;;7.29;69.85;99782.19;5032913;28;20024;-77
2022/09/25 03:13:54;;;;;;;11.30;7.93;;;;;;;7.39;69.73;99778.38;5042112;28;20472;-77
2022/09/25 03:16:33;;;;;;;11.07;8.68;;;;;;;7.40;69.47;99777.25;5051714;28;20597;-77
2022/09/25 03:18:59;;;;;;;14.60;8.55;;;;;;;7.36;69.82;99774.28;5034331;28;20022;-78
2022/09/25 03:21:24;;;;;;;10.70;9.07;;;;;;;7.44;69.10;99772.75;5032674;28;20053;-78
2022/09/25 03:23:50;;;;;;;11.30;8.65;;;;;;;7.51;68.34;99773.16;5033258;28;20036;-78
2022/09/25 03:26:15;;;;;;;13.77;9.50;;;;;;;7.57;67.92;99777.50;5032162;28;20025;-77
2022/09/25 03:28:41;;;;;;;21.60;8.18;;;;;;;7.78;67.50;99770.72;5032694;28;20030;-78
2022/09/25 03:31:09;;;;;;;11.93;7.53;;;;;;;7.68;67.06;99755.84;5032612;28;20025;-78
2022/09/25 03:33:37;;;;;;;10.80;8.15;;;;;;;7.91;66.55;99752.34;5048077;28;20024;-78
2022/09/25 03:36:03;;;;;;;8.13;7.07;;;;;;;7.77;67.84;99750.38;5050381;28;20111;-77
2022/09/25 03:38:28;;;;;;;14.60;8.40;;;;;;;7.95;67.10;99754.19;5052103;28;20056;-77
2022/09/25 03:40:53;;;;;;;8.95;7.25;;;;;;;7.83;67.35;99762.25;5051529;28;20032;-77
2022/09/25 03:43:19;;;;;;;17.15;8.27;;;;;;;7.92;67.10;99749.25;5051872;28;20086;-78
2022/09/25 03:45:44;;;;;;;10.23;7.80;;;;;;;8.22;65.68;99757.25;5050831;28;20053;-77
2022/09/25 03:48:10;;;;;;;9.85;6.57;;;;;;;7.86;66.42;99761.63;5032186;28;20033;-77
2022/09/25 03:50:38;;;;;;;13.68;7.25;;;;;;;7.87;66.94;99758.53;5032022;28;20078;-77
2022/09/25 03:53:03;;;;;;;15.40;7.47;;;;;;;7.82;67.38;99755.84;5031898;28;20083;-78
2022/09/25 03:55:29;;;;;;;12.15;8.15;;;;;;;7.59;68.46;99749.34;5030738;28;20097;-77
2022/09/25 03:57:54;;;;;;;19.63;8.32;;;;;;;7.35;69.11;99750.34;5032858;28;20025;-77
2022/09/25 04:00:20;;;;;;;14.90;9.07;;;;;;;7.06;71.20;99754.19;5043799;28;20735;-76
2022/09/25 04:02:45;;;;;;;20.38;10.10;;;;;;;6.94;71.86;99753.84;5032285;28;20026;-78
2022/09/25 04:05:11;;;;;;;14.57;9.68;;;;;;;6.94;71.69;99760.25;5031278;28;20400;-77
2022/09/25 04:07:37;;;;;;;16.05;10.18;;;;;;;6.88;72.00;99753.94;5030976;28;20415;-78
2022/09/25 04:10:02;;;;;;;19.58;11.57;;;;;;;7.08;71.34;99751.94;5029892;28;20033;-77
2022/09/25 04:12:28;;;;;;;19.52;9.63;;;;;;;7.34;69.89;99756.22;5032038;28;20029;-77
2022/09/25 04:14:53;;;;;;;19.70;9.30;;;;;;;7.35;69.68;99752.31;5030460;28;20091;-78
2022/09/25 04:17:19;;;;;;;10.30;7.82;;;;;;;7.50;69.16;99773.47;5031801;28;20460;-78
2022/09/25 04:19:45;;;;;;;13.65;8.50;;;;;;;7.39;69.40;99778.38;5031674;28;20033;-77
2022/09/25 04:22:11;;;;;;;23.20;8.90;;;;;;;7.50;69.36;99771.50;5033556;28;20108;-76
2022/09/25 04:24:48;;;;;;;13.20;8.77;;;;;;;7.67;68.85;99772.88;5051796;28;20182;-76
2022/09/25 04:27:17;;;;;;;19.55;9.57;;;;;;;7.56;69.14;99758.31;5051290;28;20032;-77
2022/09/25 04:29:43;;;;;;;21.58;9.35;;;;;;;7.91;68.56;99769.88;5051641;28;20431;-76
2022/09/25 04:34:53;;;;;;;31.33;8.93;;;;;;;8.34;66.46;99770.69;5031655;28;20120;-77
2022/09/25 04:37:25;;;;;;;16.88;9.30;;;;;;;8.41;66.48;99776.63;5031633;28;20026;-77
2022/09/25 04:39:54;;;;;;;14.55;7.95;;;;;;;8.48;66.44;99788.19;5031470;28;20484;-77
2022/09/25 04:42:23;;;;;;;17.58;7.90;;;;;;;8.61;66.15;99780.94;5031360;28;20416;-77
2022/09/25 04:44:52;;;;;;;25.25;8.23;;;;;;;8.83;65.19;99787.69;5031212;28;20132;-77
2022/09/25 04:47:19;;;;;;;12.15;7.80;;;;;;;9.01;64.27;99782.28;5030966;28;20120;-77
2022/09/25 04:49:44;;;;;;;14.40;7.85;;;;;;;9.13;63.59;99782.53;5031098;28;20632;-77
2022/09/25 04:52:14;;;;;;;14.27;8.70;;;;;;;9.17;63.70;99789.09;5031404;28;20030;-77
2022/09/25 04:54:41;;;;;;;23.23;13.27;;;;;;;8.57;65.65;99800.28;5031253;28;20028;-77
2022/09/25 04:57:07;;;;;;;18.33;11.93;;;;;;;8.16;67.52;99798.34;5031398;28;20029;-77
2022/09/25 04:59:33;;;;;;;22.33;11.45;;;;;;;8.03;67.99;99801.97;5030586;28;20036;-77
2022/09/25 05:01:58;;;;;;;15.70;10.73;;;;;;;7.45;70.44;99797.47;5036696;28;20025;-77
2022/09/25 05:04:24;;;;;;;47.47;12.68;;;;;;;7.49;70.47;99808.00;5035913;28;20078;-77
2022/09/25 05:06:50;;;;;;;26.30;12.95;;;;;;;7.23;70.87;99817.63;5045531;28;20025;-77
2022/09/25 05:09:16;;;;;;;24.00;12.23;;;;;;;7.39;71.81;99820.13;5050011;28;20033;-77
2022/09/25 05:11:41;;;;;;;20.02;11.05;;;;;;;7.67;70.35;99807.09;5048832;28;20057;-78
2022/09/25 05:14:07;;;;;;;14.90;9.98;;;;;;;8.24;68.76;99810.72;5050329;28;20428;-73
2022/09/25 05:16:33;;;;;;;18.73;11.38;;;;;;;8.55;67.28;99805.31;5050172;28;20098;-70
2022/09/25 05:18:58;;;;;;;18.25;10.35;;;;;;;8.81;66.49;99817.88;5050774;28;20021;-72
2022/09/25 05:21:24;;;;;;;18.98;12.68;;;;;;;8.95;64.88;99818.66;5054736;28;20439;-72
2022/09/25 05:23:49;;;;;;;19.48;12.13;;;;;;;9.11;63.97;99821.06;5052087;28;20406;-72
2022/09/25 05:26:15;;;;;;;13.25;9.23;;;;;;;9.10;64.70;99819.41;5053628;28;20028;-72
2022/09/25 05:28:41;;;;;;;14.55;8.30;;;;;;;9.11;65.13;99813.53;5054477;28;20029;-72
2022/09/25 05:31:06;;;;;;;11.88;8.18;;;;;;;9.38;63.74;99814.53;5052010;28;20052;-72
2022/09/25 05:33:34;;;;;;;11.70;8.15;;;;;;;9.46;63.92;99820.50;5048547;28;20033;-73
2022/09/25 05:36:04;;;;;;;10.43;7.15;;;;;;;9.60;63.14;99821.22;5038182;28;20065;-72
2022/09/25 05:38:35;;;;;;;14.48;8.35;;;;;;;9.21;64.19;99828.38;5043830;28;20036;-72
2022/09/25 05:41:08;;;;;;;15.07;8.50;;;;;;;9.11;64.33;99833.06;5049592;28;20111;-72
2022/09/25 05:43:39;;;;;;;14.85;8.27;;;;;;;9.10;64.36;99842.56;5037654;28;20029;-72
2022/09/25 05:46:05;;;;;;;12.45;9.13;;;;;;;9.38;63.84;99831.28;5046913;28;20036;-72
2022/09/25 05:48:30;;;;;;;17.70;10.85;;;;;;;9.37;64.32;99814.88;5032834;28;20083;-72
2022/09/25 05:50:57;;;;;;;22.58;9.45;;;;;;;9.53;64.58;99813.31;5036749;28;20024;-72
2022/09/25 05:53:23;;;;;;;59.70;11.50;;;;;;;9.89;62.82;99817.09;5036137;28;20025;-72
2022/09/25 05:55:53;;;;;;;18.60;9.00;;;;;;;10.20;62.18;99812.63;5042516;28;20033;-81
2022/09/25 05:58:20;;;;;;;11.38;7.70;;;;;;;10.34;60.63;99816.13;5050333;28;20029;-81
2022/09/25 06:00:46;;;;;;;42.72;28.25;;;;;;;10.61;60.61;99813.38;5033351;28;20045;-80
2022/09/25 06:03:13;;;;;;;59.28;34.70;;;;;;;10.50;59.96;99812.88;5044592;28;20030;-80
2022/09/25 06:05:41;;;;;;;29.90;19.08;;;;;;;10.78;59.53;99819.00;5053013;28;20477;-80
2022/09/25 06:08:07;;;;;;;34.17;17.42;;;;;;;10.88;58.25;99808.66;5044745;28;20025;-81
2022/09/25 06:10:33;;;;;;;41.58;22.60;;;;;;;11.09;57.02;99812.41;5031702;28;20110;-80
2022/09/25 06:13:01;;;;;;;38.17;19.75;;;;;;;11.25;57.16;99817.53;5046205;28;20029;-80
2022/09/25 06:15:28;;;;;;;42.95;18.17;;;;;;;11.39;56.13;99806.13;5039126;28;20424;-79
2022/09/25 06:17:55;;;;;;;13.50;8.50;;;;;;;11.42;55.51;99796.25;5034922;28;20029;-79
2022/09/25 06:20:21;;;;;;;9.68;6.97;;;;;;;11.37;55.18;99792.47;5038739;28;20421;-80
2022/09/25 06:22:54;;;;;;;10.20;6.47;;;;;;;11.42;54.69;99797.06;5041172;28;20029;-80
2022/09/25 06:25:22;;;;;;;11.77;6.32;;;;;;;11.36;54.82;99804.81;5039008;28;20029;-80
2022/09/25 06:27:51;;;;;;;8.70;6.28;;;;;;;11.75;54.28;99801.25;5052300;28;20044;-72
2022/09/25 06:30:17;;;;;;;7.68;5.88;;;;;;;11.85;53.21;99792.50;5043515;28;20041;-74
2022/09/25 06:32:43;;;;;;;15.52;7.18;;;;;;;12.05;52.58;99784.50;5033513;28;20029;-72
2022/09/25 06:35:09;;;;;;;7.78;5.97;;;;;;;12.33;52.17;99796.06;5033199;28;20032;-71
2022/09/25 06:37:34;;;;;;;12.73;5.43;;;;;;;12.76;51.78;99779.28;5034134;28;20029;-77
2022/09/25 06:40:00;;;;;;;8.35;5.30;;;;;;;12.89;49.71;99785.78;5038755;28;20033;-80
2022/09/25 06:42:25;;;;;;;8.75;5.28;;;;;;;13.16;49.64;99780.75;5035683;28;20025;-76
2022/09/25 06:44:50;;;;;;;6.72;5.30;;;;;;;13.46;48.97;99777.84;5043221;28;20545;-74
2022/09/25 06:47:16;;;;;;;6.97;4.85;;;;;;;13.59;48.48;99784.31;5052527;28;20746;-77
2022/09/25 06:49:41;;;;;;;9.38;6.05;;;;;;;13.65;48.87;99779.28;5044621;28;20037;-79
2022/09/25 06:52:07;;;;;;;7.93;5.65;;;;;;;13.71;49.11;99777.88;5042157;28;20095;-79
2022/09/25 06:54:32;;;;;;;7.43;6.28;;;;;;;13.84;48.58;99775.94;5051772;28;20033;-75
2022/09/25 06:56:58;;;;;;;7.03;5.95;;;;;;;14.16;47.78;99776.16;5052899;28;20056;-79
2022/09/25 06:59:24;;;;;;;8.40;5.82;;;;;;;14.16;46.71;99770.53;5045966;28;20045;-79
2022/09/25 07:01:50;;;;;;;8.05;5.40;;;;;;;14.17;47.64;99778.63;5032932;28;20035;-79
2022/09/25 07:04:16;;;;;;;9.98;6.38;;;;;;;14.06;46.97;99780.25;5031939;28;20033;-73
2022/09/25 07:06:42;;;;;;;11.05;5.85;;;;;;;14.26;47.07;99777.69;5045866;28;20041;-79
2022/09/25 07:09:07;;;;;;;5.93;5.30;;;;;;;14.48;45.92;99778.34;5048814;28;20036;-79
2022/09/25 07:11:34;;;;;;;7.40;5.10;;;;;;;14.64;46.11;99778.44;5042691;28;20034;-80
2022/09/25 07:13:59;;;;;;;9.95;5.90;;;;;;;14.81;44.98;99774.56;5037910;28;20032;-76
2022/09/25 07:16:27;;;;;;;5.45;4.93;;;;;;;14.71;44.34;99776.66;5031995;28;20465;-81
2022/09/25 07:18:54;;;;;;;10.10;5.13;;;;;;;14.91;44.49;99785.34;5034235;28;20021;-79
2022/09/25 07:21:22;;;;;;;10.85;8.20;;;;;;;14.90;43.76;99792.13;5032715;28;20029;-78
2022/09/25 07:23:49;;;;;;;11.48;5.88;;;;;;;14.90;44.28;99792.13;5042236;28;20091;-79
2022/09/25 07:26:21;;;;;;;9.73;6.28;;;;;;;15.28;43.89;99798.47;5058767;28;20090;-75
2022/09/25 07:28:47;;;;;;;8.63;5.78;;;;;;;15.10;44.74;99800.78;5040641;28;20021;-78
2022/09/25 07:31:15;;;;;;;9.80;5.57;;;;;;;15.55;44.65;99795.97;5036020;28;20029;-78
2022/09/25 07:33:41;;;;;;;7.45;5.68;;;;;;;15.53;43.98;99784.25;5044053;28;20034;-78
2022/09/25 07:36:07;;;;;;;8.35;5.65;;;;;;;15.64;43.67;99784.53;5035850;28;20025;-78
2022/09/25 07:38:33;;;;;;;7.55;5.30;;;;;;;15.96;42.63;99774.09;5032962;28;20025;-80
2022/09/25 07:40:59;;;;;;;6.13;5.30;;;;;;;16.12;42.06;99776.91;5032361;28;20087;-76
2022/09/25 07:43:24;;;;;;;5.22;4.35;;;;;;;16.54;40.99;99772.66;5032241;28;20112;-80
2022/09/25 07:45:52;;;;;;;5.90;4.07;;;;;;;16.72;40.70;99762.94;5030900;28;20054;-75
2022/09/25 07:48:19;;;;;;;5.50;4.22;;;;;;;16.41;40.99;99757.03;5045374;28;20039;-79
2022/09/25 07:50:47;;;;;;;6.55;4.10;;;;;;;16.59;41.39;99754.63;5033993;28;20112;-75
2022/09/25 07:53:13;;;;;;;7.57;4.50;;;;;;;16.76;41.10;99763.84;5040114;28;20041;-77
2022/09/25 07:55:38;;;;;;;5.78;4.68;;;;;;;16.87;40.92;99766.91;5043013;28;20388;-78
2022/09/25 07:58:03;;;;;;;4.93;3.92;;;;;;;17.11;40.17;99772.28;5030368;28;20627;-74
2022/09/25 08:00:29;;;;;;;8.68;4.40;;;;;;;17.40;39.80;99763.56;5039060;28;20488;-79
2022/09/25 08:02:56;;;;;;;5.50;4.22;;;;;;;16.94;39.96;99770.69;5032600;28;20033;-73
2022/09/25 08:05:22;;;;;;;15.20;5.20;;;;;;;16.82;40.09;99759.53;5030157;28;20056;-76
2022/09/25 08:07:47;;;;;;;8.48;4.43;;;;;;;17.21;40.04;99750.28;5034135;28;20071;-84
2022/09/25 08:10:13;;;;;;;6.57;4.43;;;;;;;17.05;40.29;99754.00;5031706;28;20040;-74
2022/09/25 08:12:39;;;;;;;6.60;4.03;;;;;;;17.27;40.04;99754.44;5035087;28;20041;-72
2022/09/25 08:15:06;;;;;;;5.03;4.50;;;;;;;17.81;39.30;99749.75;5029951;28;20396;-75
2022/09/25 08:17:31;;;;;;;6.78;4.38;;;;;;;18.15;38.82;99748.31;5033939;28;20036;-74
2022/09/25 08:19:57;;;;;;;6.93;4.25;;;;;;;18.29;38.28;99745.69;5032619;28;20506;-75
2022/09/25 08:22:22;;;;;;;7.25;4.78;;;;;;;18.49;37.50;99748.41;5031332;28;20037;-74
2022/09/25 08:24:48;;;;;;;6.13;4.28;;;;;;;18.36;38.43;99734.50;5032195;28;20551;-74
2022/09/25 08:27:13;;;;;;;6.97;4.20;;;;;;;18.52;38.62;99727.81;5041161;28;20040;-75
2022/09/25 08:29:39;;;;;;;5.57;4.43;;;;;;;18.18;37.85;99734.22;5037229;28;20049;-75
2022/09/25 08:32:05;;;;;;;8.18;3.83;;;;;;;18.84;38.15;99741.63;5035986;28;20034;-75
2022/09/25 08:34:31;;;;;;;4.70;4.20;;;;;;;18.90;37.78;99733.59;5031338;28;20033;-75
2022/09/25 08:36:57;;;;;;;9.20;5.03;;;;;;;18.93;36.93;99724.31;5028420;28;20025;-75
2022/09/25 08:39:22;;;;;;;6.60;5.43;;;;;;;17.87;38.63;99733.28;5031222;28;20029;-73
2022/09/25 08:41:52;;;;;;;4.68;3.95;;;;;;;18.37;38.30;99724.78;5028635;28;20024;-75
2022/09/25 08:44:29;;;;;;;8.82;4.40;;;;;;;18.91;37.28;99724.69;5032032;28;20053;-75
2022/09/25 08:50:05;;;;;;;5.18;4.32;;;;;;;19.29;35.89;99729.59;5034657;28;20137;-71
2022/09/25 08:52:31;;;;;;;7.05;4.20;;;;;;;19.73;36.17;99728.00;5046505;28;20120;-76
2022/09/25 08:54:57;;;;;;;4.82;4.38;;;;;;;18.99;36.51;99719.13;5040364;28;20029;-76
2022/09/25 08:57:38;;;;;;;6.10;4.03;;;;;;;18.86;36.76;99727.88;5042996;28;20040;-75
2022/09/25 09:00:08;;;;;;;5.82;4.70;;;;;;;18.26;38.02;99725.81;5041457;28;20437;-76
2022/09/25 09:02:44;;;;;;;5.25;4.30;;;;;;;18.51;37.25;99724.16;5048815;28;20028;-76
2022/09/25 09:05:25;;;;;;;4.45;4.05;;;;;;;18.49;36.96;99714.44;5040177;28;20033;-76
2022/09/25 09:07:56;;;;;;;6.05;4.47;;;;;;;19.22;36.18;99707.66;5048986;28;20121;-76
2022/09/25 09:10:33;;;;;;;4.75;4.00;;;;;;;19.72;35.31;99703.66;5048493;28;20043;-76
2022/09/25 09:13:30;;;;;;;7.68;4.25;;;;;;;19.78;34.68;99690.75;5047953;28;20032;-76
2022/09/25 09:16:17;;;;;;;8.25;5.25;;;;;;;20.18;34.12;99700.41;5043270;28;20463;-75
2022/09/25 09:18:42;;;;;;;9.63;5.22;;;;;;;20.17;34.60;99690.25;5042068;28;20025;-76
2022/09/25 09:21:31;;;;;;;5.68;4.65;;;;;;;20.29;35.27;99694.81;5050600;28;20454;-77
2022/09/25 09:24:24;;;;;;;7.00;4.25;;;;;;;20.52;33.99;99688.03;5038034;28;20021;-75
2022/09/25 09:27:11;;;;;;;7.25;4.97;;;;;;;20.45;33.50;99676.63;5033965;28;20033;-76
2022/09/25 09:29:49;;;;;;;6.05;4.70;;;;;;;20.74;33.82;99671.06;5048435;28;20181;-76
2022/09/25 09:32:37;;;;;;;7.55;5.38;;;;;;;20.89;33.67;99666.28;5040648;28;20044;-74
2022/09/25 09:35:24;;;;;;;10.57;5.68;;;;;;;21.08;32.88;99667.16;5048653;28;20113;-73
2022/09/25 09:38:13;;;;;;;7.90;5.90;;;;;;;21.10;33.46;99664.72;5053894;28;20025;-75
2022/09/25 09:41:00;;;;;;;6.22;5.13;;;;;;;21.04;32.44;99658.63;5048867;28;20126;-74
2022/09/25 09:43:46;;;;;;;8.68;5.53;;;;;;;21.11;32.09;99655.78;5051293;28;20024;-75
2022/09/25 09:46:22;;;;;;;5.90;4.10;;;;;;;21.22;32.82;99660.69;5046980;28;20076;-77
2022/09/25 09:49:02;;;;;;;6.72;4.05;;;;;;;21.51;31.27;99660.72;5054812;28;20453;-73
2022/09/25 09:51:38;;;;;;;15.75;5.70;;;;;;;21.49;31.45;99649.75;5037746;28;20033;-74
2022/09/25 09:54:20;;;;;;;14.30;8.20;;;;;;;21.57;31.37;99650.56;5050638;28;20032;-72
2022/09/25 09:56:48;;;;;;;19.30;13.30;;;;;;;21.62;31.77;99649.34;5054164;28;20420;-75
2022/09/25 09:59:18;;;;;;;7.35;6.20;;;;;;;21.63;31.98;99648.94;5053841;28;20025;-76
2022/09/25 10:01:50;;;;;;;7.05;5.15;;;;;;;21.56;32.36;99651.78;5030475;28;20040;-76
2022/09/25 10:04:23;;;;;;;9.38;5.28;;;;;;;21.61;32.45;99642.84;5046901;28;20033;-75
2022/09/25 10:07:00;;;;;;;9.70;5.72;;;;;;;21.86;31.88;99640.00;5035026;28;20060;-75
2022/09/25 10:09:26;;;;;;;5.97;4.10;;;;;;;21.80;32.32;99640.81;5036687;28;20028;-75
2022/09/25 10:12:00;;;;;;;6.13;4.18;;;;;;;21.90;30.98;99644.88;5057146;28;20470;-78
2022/09/25 10:14:37;;;;;;;4.38;3.85;;;;;;;21.70;31.18;99643.25;5047444;28;20031;-73
2022/09/25 10:17:04;;;;;;;7.93;4.65;;;;;;;21.55;30.46;99638.78;5067139;28;20051;-74
2022/09/25 10:19:41;;;;;;;9.27;4.25;;;;;;;21.74;30.29;99632.69;5053205;28;20062;-74
2022/09/25 10:22:14;;;;;;;5.38;4.47;;;;;;;21.90;30.01;99624.94;5062828;28;20179;-75
2022/09/25 10:25:01;;;;;;;8.98;6.45;;;;;;;21.99;31.42;99626.16;5058544;28;20082;-74
2022/09/25 10:27:35;;;;;;;6.43;4.20;;;;;;;21.71;30.67;99627.81;5054457;28;20040;-75
2022/09/25 10:30:10;;;;;;;5.13;3.80;;;;;;;21.91;30.46;99621.69;5057349;28;20865;-74
2022/09/25 10:33:01;;;;;;;9.43;5.32;;;;;;;22.11;30.66;99622.06;5060616;28;20047;-77
2022/09/25 10:35:48;;;;;;;6.20;4.30;;;;;;;22.18;29.45;99611.88;5040670;28;20103;-75
2022/09/25 10:38:35;;;;;;;6.35;4.15;;;;;;;22.22;30.03;99613.50;5038218;28;20021;-73
2022/09/25 10:41:19;;;;;;;7.32;4.60;;;;;;;22.30;29.81;99603.69;5066646;28;20093;-74
2022/09/25 10:43:59;;;;;;;9.38;4.78;;;;;;;22.35;29.57;99611.00;5060490;28;20034;-79
2022/09/25 10:52:10;;;;;;;9.65;4.30;;;;;;;22.75;29.16;99602.28;5045107;28;20090;-79
2022/09/25 10:54:36;;;;;;;8.98;3.70;;;;;;;23.14;28.91;99598.38;5051557;28;20529;-79
2022/09/25 10:57:32;;;;;;;6.22;3.83;;;;;;;23.29;27.78;99584.06;5051208;28;20140;-81
2022/09/25 11:00:00;;;;;;;5.72;3.63;;;;;;;23.32;27.69;99586.06;5036096;28;20412;-78
2022/09/25 11:02:37;;;;;;;5.55;4.70;;;;;;;23.22;28.09;99582.00;5051877;28;20036;-78
2022/09/25 11:05:04;;;;;;;3.80;3.28;;;;;;;22.86;27.88;99568.00;5044162;28;20024;-80
2022/09/25 11:07:32;;;;;;;9.07;3.90;;;;;;;22.99;28.04;99576.91;5049570;28;20105;-83
2022/09/25 11:10:01;;;;;;;7.97;3.55;;;;;;;23.11;28.81;99572.75;5044524;28;20476;-77
2022/09/25 11:12:30;;;;;;;6.07;3.70;;;;;;;23.24;27.67;99565.31;5037239;28;20082;-74
2022/09/25 11:15:01;;;;;;;6.85;3.50;;;;;;;23.07;27.26;99567.06;5053538;28;20082;-79
2022/09/25 11:17:39;;;;;;;5.00;3.30;;;;;;;23.02;28.33;99556.09;5059520;28;20025;-81
2022/09/25 11:20:15;;;;;;;6.72;3.05;;;;;;;23.05;26.66;99560.97;5053978;28;20585;-79
2022/09/25 11:22:48;;;;;;;8.23;4.82;;;;;;;23.06;27.45;99548.34;5065590;28;20020;-79
2022/09/25 11:25:29;;;;;;;6.75;3.65;;;;;;;23.02;27.28;99553.25;5061412;28;20495;-75
2022/09/25 11:28:04;;;;;;;7.75;6.28;;;;;;;23.07;27.87;99552.81;5039816;28;20021;-74
2022/09/25 11:30:48;;;;;;;4.68;3.65;;;;;;;23.10;27.70;99551.13;5038148;28;20579;-80
2022/09/25 11:33:26;;;;;;;11.75;3.65;;;;;;;22.92;27.73;99546.38;5036554;28;20392;-74
2022/09/25 11:36:04;;;;;;;5.63;3.58;;;;;;;23.30;27.74;99547.75;5045440;28;20047;-73
2022/09/25 11:41:45;;;;;;;6.45;4.28;;;;;;;23.32;28.14;99540.41;5042866;28;20502;-73
2022/09/25 11:44:31;;;;;;;9.23;7.28;;;;;;;23.34;27.35;99535.09;5061702;28;20044;-73
2022/09/25 11:47:05;;;;;;;7.07;3.92;;;;;;;23.18;27.37;99523.38;5052465;28;21823;-72
2022/09/25 11:49:35;;;;;;;4.47;3.70;;;;;;;23.27;27.00;99524.56;5066505;28;20017;-74
2022/09/25 11:52:17;;;;;;;7.95;7.13;;;;;;;23.36;27.50;99517.56;5045848;28;20519;-76
2022/09/25 11:55:04;;;;;;;5.63;3.67;;;;;;;23.66;26.74;99516.84;5054786;28;20407;-76
2022/09/25 11:57:42;;;;;;;5.78;4.40;;;;;;;23.69;27.21;99518.84;5040277;28;20016;-71
2022/09/25 12:00:24;;;;;;;7.60;3.42;;;;;;;23.78;27.86;99514.69;5035407;28;20036;-74
2022/09/25 12:03:05;;;;;;;5.10;3.38;;;;;;;24.00;26.43;99503.00;5044860;28;20032;-72
2022/09/25 12:05:48;;;;;;;8.13;3.50;;;;;;;23.83;27.33;99505.63;5044065;28;20029;-72
2022/09/25 12:08:23;;;;;;;4.80;3.55;;;;;;;23.89;26.57;99489.66;5036929;28;20068;-69
2022/09/25 12:11:03;;;;;;;4.50;3.78;;;;;;;23.54;27.78;99503.09;5048920;28;20028;-69